createdAt,value
2023-03-07T00:00:16.702Z,11.20
2023-03-07T00:02:44.672Z,10.38
2023-03-07T00:05:14.759Z,10.40
2023-03-07T00:07:42.275Z,10.60
2023-03-07T00:10:10.234Z,11.57
2023-03-07T00:12:37.738Z,9.98
2023-03-07T00:15:05.467Z,10.73
2023-03-07T00:17:33.156Z,10.50
2023-03-07T00:20:00.674Z,10.27
2023-03-07T00:22:28.261Z,7.55
2023-03-07T00:24:55.813Z,11.25
2023-03-07T00:27:23.404Z,10.57
2023-03-07T00:29:51.009Z,10.57
2023-03-07T00:32:18.672Z,11.38
2023-03-07T00:34:46.339Z,11.55
2023-03-07T00:37:15.213Z,11.07
2023-03-07T00:39:43.122Z,11.65
2023-03-07T00:42:10.662Z,10.93
2023-03-07T00:44:38.227Z,10.05
2023-03-07T00:47:05.903Z,10.38
2023-03-07T00:49:33.465Z,10.90
2023-03-07T00:52:01.091Z,10.05
2023-03-07T00:54:29.860Z,9.57
2023-03-07T00:56:57.650Z,10.55
2023-03-07T00:59:25.531Z,11.30
2023-03-07T01:04:21.071Z,8.18
2023-03-07T01:06:48.595Z,10.00
2023-03-07T01:09:16.121Z,10.60
2023-03-07T01:11:43.651Z,10.27
2023-03-07T01:14:11.302Z,10.48
2023-03-07T01:16:39.026Z,10.57
2023-03-07T01:19:07.885Z,9.65
2023-03-07T01:21:36.610Z,10.13
2023-03-07T01:24:05.600Z,9.82
2023-03-07T01:26:33.347Z,9.00
2023-03-07T01:29:01.533Z,9.38
2023-03-07T01:31:32.280Z,10.38
2023-03-07T01:34:02.090Z,9.45
2023-03-07T01:36:32.795Z,10.05
2023-03-07T01:39:12.622Z,9.90
2023-03-07T01:41:43.329Z,9.48
2023-03-07T01:44:18.763Z,9.18
2023-03-07T01:46:47.355Z,9.18
2023-03-07T01:49:16.830Z,9.60
2023-03-07T01:51:45.827Z,9.05
2023-03-07T01:54:13.867Z,8.98
2023-03-07T01:56:42.196Z,8.85
2023-03-07T01:59:09.826Z,9.00
2023-03-07T02:01:37.628Z,9.50
2023-03-07T02:04:16.228Z,8.82
2023-03-07T02:06:44.004Z,9.10
2023-03-07T02:09:16.313Z,6.15
2023-03-07T02:11:43.949Z,8.70
2023-03-07T02:14:11.521Z,9.07
2023-03-07T02:16:39.340Z,8.90
2023-03-07T02:19:12.096Z,8.77
2023-03-07T02:21:40.949Z,8.18
2023-03-07T02:24:28.849Z,8.80
2023-03-07T02:26:56.438Z,8.75
2023-03-07T02:29:24.286Z,7.45
2023-03-07T02:31:51.893Z,8.73
2023-03-07T02:34:26.779Z,8.45
2023-03-07T02:37:21.894Z,7.90
2023-03-07T02:39:50.398Z,7.78
2023-03-07T02:42:20.746Z,8.73
2023-03-07T02:44:56.820Z,7.57
2023-03-07T02:47:24.844Z,9.27
2023-03-07T02:49:52.409Z,8.23
2023-03-07T02:52:21.530Z,7.85
2023-03-07T02:54:49.124Z,8.85
2023-03-07T02:57:16.858Z,7.72
2023-03-07T02:59:44.662Z,8.07
2023-03-07T03:02:12.458Z,8.32
2023-03-07T03:04:39.990Z,7.32
2023-03-07T03:07:07.620Z,7.97
2023-03-07T03:09:36.450Z,7.80
2023-03-07T03:14:33.168Z,7.90
2023-03-07T03:17:00.816Z,6.10
2023-03-07T03:19:29.529Z,8.10
2023-03-07T03:21:58.452Z,6.97
2023-03-07T03:24:27.446Z,7.82
2023-03-07T03:26:59.014Z,8.65
2023-03-07T03:29:28.236Z,8.00
2023-03-07T03:32:00.045Z,8.52
2023-03-07T03:34:27.639Z,9.02
2023-03-07T03:36:55.244Z,8.05
2023-03-07T03:39:22.855Z,7.95
2023-03-07T03:41:54.842Z,8.02
2023-03-07T03:44:23.812Z,7.95
2023-03-07T03:46:51.733Z,7.75
2023-03-07T03:49:21.906Z,8.02
2023-03-07T03:51:51.676Z,7.22
2023-03-07T03:54:19.693Z,8.07
2023-03-07T03:56:47.293Z,8.35
2023-03-07T03:59:14.871Z,7.70
2023-03-07T04:01:42.647Z,7.85
2023-03-07T04:04:10.486Z,8.43
2023-03-07T04:06:39.046Z,7.40
2023-03-07T04:09:06.588Z,6.82
2023-03-07T04:11:36.519Z,7.78
2023-03-07T04:14:04.089Z,8.75
2023-03-07T04:16:31.812Z,7.30
2023-03-07T04:19:00.180Z,7.82
2023-03-07T04:21:27.798Z,7.60
2023-03-07T04:23:58.370Z,7.75
2023-03-07T04:26:29.538Z,7.72
2023-03-07T04:28:57.719Z,7.05
2023-03-07T04:31:34.241Z,8.02
2023-03-07T04:34:04.163Z,8.15
2023-03-07T04:36:32.203Z,8.07
2023-03-07T04:38:59.788Z,9.77
2023-03-07T04:41:27.704Z,7.78
2023-03-07T04:43:59.341Z,8.32
2023-03-07T04:46:27.240Z,7.85
2023-03-07T04:48:55.029Z,7.72
2023-03-07T04:51:23.055Z,7.07
2023-03-07T04:53:51.080Z,7.13
2023-03-07T04:56:18.842Z,7.47
2023-03-07T04:58:47.569Z,8.38
2023-03-07T05:01:15.645Z,7.90
2023-03-07T05:03:44.546Z,8.95
2023-03-07T05:06:16.592Z,8.13
2023-03-07T05:08:48.917Z,7.70
2023-03-07T05:13:44.734Z,8.23
2023-03-07T05:16:13.856Z,7.68
2023-03-07T05:18:41.397Z,7.47
2023-03-07T05:21:09.031Z,8.05
2023-03-07T05:23:37.042Z,7.88
2023-03-07T05:26:05.501Z,8.25
2023-03-07T05:28:33.993Z,8.45
2023-03-07T05:31:01.606Z,8.25
2023-03-07T05:33:29.251Z,8.70
2023-03-07T05:35:59.649Z,8.88
2023-03-07T05:38:27.376Z,8.30
2023-03-07T05:40:55.084Z,9.20
2023-03-07T05:43:22.598Z,8.80
2023-03-07T05:45:51.737Z,7.30
2023-03-07T05:48:19.526Z,8.02
2023-03-07T05:50:47.133Z,8.25
2023-03-07T05:53:15.024Z,8.43
2023-03-07T05:55:42.576Z,7.90
2023-03-07T05:58:10.348Z,8.20
2023-03-07T06:00:37.953Z,7.78
2023-03-07T06:03:05.602Z,8.27
2023-03-07T06:05:34.125Z,8.13
2023-03-07T06:08:03.713Z,7.45
2023-03-07T06:10:31.227Z,8.77
2023-03-07T06:12:58.738Z,8.38
2023-03-07T06:15:26.301Z,8.98
2023-03-07T06:18:00.512Z,7.85
2023-03-07T06:20:28.112Z,8.65
2023-03-07T06:25:23.822Z,7.50
2023-03-07T06:27:51.554Z,8.00
2023-03-07T06:30:19.120Z,8.65
2023-03-07T06:32:46.664Z,7.75
2023-03-07T06:35:14.269Z,9.70
2023-03-07T06:37:42.374Z,6.47
2023-03-07T06:40:10.678Z,8.25
2023-03-07T06:42:39.539Z,7.82
2023-03-07T06:45:08.494Z,8.07
2023-03-07T06:47:36.216Z,8.75
2023-03-07T06:50:05.420Z,8.15
2023-03-07T06:52:34.370Z,9.15
2023-03-07T06:55:02.053Z,8.43
2023-03-07T06:57:30.929Z,8.07
2023-03-07T06:59:58.624Z,8.52
2023-03-07T07:04:55.262Z,8.45
2023-03-07T07:07:22.881Z,8.32
2023-03-07T07:09:51.171Z,9.00
2023-03-07T07:12:19.121Z,8.15
2023-03-07T07:14:47.501Z,7.97
2023-03-07T07:17:15.291Z,8.57
2023-03-07T07:19:43.372Z,8.45
2023-03-07T07:22:12.031Z,8.32
2023-03-07T07:24:39.944Z,8.30
2023-03-07T07:27:09.129Z,7.85
2023-03-07T07:29:37.646Z,7.90
2023-03-07T07:32:05.547Z,8.23
2023-03-07T07:34:33.445Z,7.55
2023-03-07T07:37:01.072Z,6.20
2023-03-07T07:39:29.015Z,8.13
2023-03-07T07:41:56.618Z,7.85
2023-03-07T07:44:29.544Z,7.53
2023-03-07T07:46:59.359Z,7.75
2023-03-07T07:49:27.054Z,7.45
2023-03-07T07:51:54.670Z,8.07
2023-03-07T07:54:22.238Z,7.68
2023-03-07T07:56:50.919Z,8.30
2023-03-07T07:59:19.292Z,7.97
2023-03-07T08:01:46.889Z,7.72
2023-03-07T08:04:14.404Z,8.10
2023-03-07T08:06:44.077Z,7.32
2023-03-07T08:09:11.804Z,7.75
2023-03-07T08:11:39.344Z,7.18
2023-03-07T08:14:06.935Z,7.68
2023-03-07T08:16:34.425Z,7.25
2023-03-07T08:19:02.024Z,6.97
2023-03-07T08:21:29.522Z,6.07
2023-03-07T08:23:57.124Z,7.78
2023-03-07T08:26:24.826Z,7.78
2023-03-07T08:28:52.383Z,6.97
2023-03-07T08:31:20.778Z,7.28
2023-03-07T08:33:48.385Z,6.85
2023-03-07T08:36:16.048Z,6.47
2023-03-07T08:38:43.765Z,8.30
2023-03-07T08:41:11.296Z,8.23
2023-03-07T08:43:41.786Z,7.57
2023-03-07T08:46:09.309Z,7.22
2023-03-07T08:48:36.851Z,7.18
2023-03-07T08:51:05.752Z,6.68
2023-03-07T08:53:33.296Z,6.88
2023-03-07T08:56:19.094Z,6.40
2023-03-07T08:58:46.801Z,6.13
2023-03-07T09:01:14.420Z,6.88
2023-03-07T09:03:42.904Z,6.45
2023-03-07T09:06:11.964Z,7.70
2023-03-07T09:08:39.467Z,7.03
2023-03-07T09:11:07.318Z,6.63
2023-03-07T09:13:43.051Z,6.93
2023-03-07T09:16:17.550Z,6.95
2023-03-07T09:18:45.092Z,6.43
2023-03-07T09:21:12.594Z,7.18
2023-03-07T09:23:40.127Z,7.20
2023-03-07T09:26:07.637Z,7.72
2023-03-07T09:28:35.199Z,6.78
2023-03-07T09:31:12.816Z,7.50
2023-03-07T09:33:40.740Z,7.53
2023-03-07T09:36:09.357Z,6.22
2023-03-07T09:38:36.894Z,7.65
2023-03-07T09:41:13.773Z,7.15
2023-03-07T09:43:45.203Z,6.65
2023-03-07T09:46:38.086Z,7.32
2023-03-07T09:49:28.656Z,7.07
2023-03-07T09:51:58.406Z,6.60
2023-03-07T09:54:52.384Z,7.32
2023-03-07T09:57:22.528Z,7.07
2023-03-07T09:59:53.487Z,7.28
2023-03-07T10:02:24.147Z,7.13
2023-03-07T10:05:10.583Z,7.57
2023-03-07T10:07:38.167Z,7.35
2023-03-07T10:10:06.564Z,7.30
2023-03-07T10:12:37.073Z,7.40
2023-03-07T10:15:20.080Z,6.78
2023-03-07T10:18:06.449Z,7.50
2023-03-07T10:20:40.898Z,7.45
2023-03-07T10:23:08.456Z,7.57
2023-03-07T10:25:43.800Z,7.60
2023-03-07T10:28:19.888Z,7.60
2023-03-07T10:30:47.403Z,7.97
2023-03-07T10:33:18.373Z,8.60
2023-03-07T10:35:48.612Z,8.15
2023-03-07T10:38:20.801Z,7.72
2023-03-07T10:40:53.337Z,7.18
2023-03-07T10:43:25.041Z,7.18
2023-03-07T10:46:23.717Z,7.75
2023-03-07T10:48:53.052Z,7.90
2023-03-07T10:51:39.483Z,7.10
2023-03-07T10:54:09.009Z,7.82
2023-03-07T10:56:36.579Z,7.68
2023-03-07T10:59:10.625Z,8.00
2023-03-07T11:01:38.757Z,8.13
2023-03-07T11:06:39.050Z,7.72
2023-03-07T11:09:26.872Z,7.95
2023-03-07T11:11:55.684Z,8.70
2023-03-07T11:14:23.669Z,8.05
2023-03-07T11:16:54.450Z,7.22
2023-03-07T11:19:24.794Z,8.20
2023-03-07T11:21:55.365Z,7.88
2023-03-07T11:24:26.102Z,8.48
2023-03-07T11:27:00.109Z,7.72
2023-03-07T11:29:33.455Z,7.63
2023-03-07T11:32:05.981Z,7.60
2023-03-07T11:34:42.701Z,7.50
2023-03-07T11:37:25.373Z,7.90
2023-03-07T11:39:56.144Z,7.82
2023-03-07T11:42:29.618Z,8.43
2023-03-07T11:45:01.585Z,8.05
2023-03-07T11:47:38.405Z,7.93
2023-03-07T11:50:25.011Z,8.65
2023-03-07T11:52:52.967Z,8.32
2023-03-07T11:58:03.313Z,7.57
2023-03-07T12:00:37.894Z,8.10
2023-03-07T12:03:09.915Z,7.78
2023-03-07T12:05:39.502Z,8.65
2023-03-07T12:08:10.148Z,7.90
2023-03-07T12:10:40.568Z,7.88
2023-03-07T12:13:08.164Z,7.72
2023-03-07T12:15:40.970Z,7.15
2023-03-07T12:18:20.782Z,8.63
2023-03-07T12:21:00.228Z,8.05
2023-03-07T12:23:27.885Z,7.97
2023-03-07T12:25:56.457Z,7.53
2023-03-07T12:28:30.142Z,7.72
2023-03-07T12:31:07.071Z,7.68
2023-03-07T12:33:43.236Z,7.80
2023-03-07T12:36:12.755Z,7.80
2023-03-07T12:38:41.072Z,7.88
2023-03-07T12:41:14.740Z,7.28
2023-03-07T12:43:44.416Z,7.10
2023-03-07T12:46:15.007Z,7.47
2023-03-07T12:48:49.031Z,7.97
2023-03-07T12:51:23.034Z,8.77
2023-03-07T12:53:56.543Z,7.97
2023-03-07T12:56:24.041Z,7.80
2023-03-07T12:58:51.581Z,7.72
2023-03-07T13:01:24.331Z,8.10
2023-03-07T13:04:10.822Z,8.18
2023-03-07T13:06:39.809Z,7.80
2023-03-07T13:09:07.453Z,7.30
2023-03-07T13:11:35.231Z,8.77
2023-03-07T13:14:05.855Z,7.45
2023-03-07T13:16:33.474Z,7.25
2023-03-07T13:19:33.617Z,7.13
2023-03-07T13:22:01.570Z,8.02
2023-03-07T13:24:39.831Z,7.28
2023-03-07T13:27:26.393Z,8.00
2023-03-07T13:30:09.158Z,7.28
2023-03-07T13:32:51.747Z,7.30
2023-03-07T13:35:28.454Z,7.78
2023-03-07T13:38:14.880Z,7.80
2023-03-07T13:40:46.515Z,8.38
2023-03-07T13:43:17.056Z,7.95
2023-03-07T13:46:00.119Z,8.32
2023-03-07T13:48:28.044Z,8.13
2023-03-07T13:50:55.615Z,7.65
2023-03-07T13:53:23.386Z,7.90
2023-03-07T13:55:54.517Z,8.30
2023-03-07T13:58:25.145Z,7.50
2023-03-07T14:00:59.643Z,8.38
2023-03-07T14:03:32.004Z,7.28
2023-03-07T14:06:00.607Z,7.93
2023-03-07T14:08:29.157Z,8.02
2023-03-07T14:10:56.706Z,8.23
2023-03-07T14:13:34.791Z,8.18
2023-03-07T14:18:49.233Z,7.65
2023-03-07T14:21:16.730Z,8.32
2023-03-07T14:23:53.393Z,7.63
2023-03-07T14:26:21.718Z,7.68
2023-03-07T14:28:49.266Z,7.88
2023-03-07T14:31:40.089Z,8.38
2023-03-07T14:34:16.922Z,7.93
2023-03-07T14:36:46.111Z,7.85
2023-03-07T14:39:14.105Z,7.60
2023-03-07T14:41:45.990Z,7.55
2023-03-07T14:44:16.513Z,18.42
2023-03-07T14:47:07.819Z,7.65
2023-03-07T14:49:41.439Z,7.72
2023-03-07T14:52:16.349Z,7.28
2023-03-07T14:54:48.870Z,6.93
2023-03-07T14:57:19.277Z,7.68
2023-03-07T15:00:02.573Z,7.03
2023-03-07T15:02:30.144Z,8.93
2023-03-07T15:04:57.734Z,7.07
2023-03-07T15:07:25.378Z,7.32
2023-03-07T15:09:52.979Z,6.75
2023-03-07T15:12:21.679Z,7.13
2023-03-07T15:14:50.299Z,7.90
2023-03-07T15:17:19.773Z,6.53
2023-03-07T15:19:51.025Z,7.35
2023-03-07T15:22:25.904Z,8.00
2023-03-07T15:24:53.793Z,7.65
2023-03-07T15:27:28.368Z,8.18
2023-03-07T15:29:55.951Z,7.85
2023-03-07T15:32:36.711Z,7.13
2023-03-07T15:35:10.946Z,7.55
2023-03-07T15:37:57.377Z,7.38
2023-03-07T15:40:30.047Z,7.07
2023-03-07T15:43:04.389Z,8.10
2023-03-07T15:45:32.246Z,8.10
2023-03-07T15:48:01.372Z,7.88
2023-03-07T15:50:29.709Z,6.63
2023-03-07T15:53:00.913Z,7.63
2023-03-07T15:55:28.515Z,8.25
2023-03-07T15:57:59.726Z,8.10
2023-03-07T16:00:27.317Z,8.40
2023-03-07T16:02:54.883Z,8.35
2023-03-07T16:05:25.227Z,7.32
2023-03-07T16:07:53.440Z,8.20
2023-03-07T16:10:21.073Z,7.80
2023-03-07T16:12:48.780Z,7.57
2023-03-07T16:15:16.998Z,7.45
2023-03-07T16:17:44.572Z,7.85
2023-03-07T16:20:15.681Z,8.07
2023-03-07T16:22:44.405Z,8.38
2023-03-07T16:25:12.144Z,8.68
2023-03-07T16:27:40.703Z,7.78
2023-03-07T16:30:14.529Z,9.10
2023-03-07T16:32:42.146Z,8.23
2023-03-07T16:35:14.519Z,8.02
2023-03-07T16:37:42.054Z,7.72
2023-03-07T16:40:10.307Z,8.38
2023-03-07T16:42:38.256Z,9.57
2023-03-07T16:45:05.989Z,8.10
2023-03-07T16:47:33.501Z,8.55
2023-03-07T16:50:01.181Z,8.60
2023-03-07T16:52:28.775Z,9.15
2023-03-07T16:54:56.292Z,8.45
2023-03-07T16:57:23.832Z,10.05
2023-03-07T16:59:51.370Z,8.45
2023-03-07T17:02:19.614Z,8.73
2023-03-07T17:07:18.132Z,8.80
2023-03-07T17:09:45.763Z,9.00
2023-03-07T17:12:13.428Z,8.80
2023-03-07T17:14:41.193Z,8.88
2023-03-07T17:17:08.722Z,8.90
2023-03-07T17:19:36.339Z,9.15
2023-03-07T17:22:04.282Z,9.85
2023-03-07T17:24:31.844Z,10.07
2023-03-07T17:27:00.301Z,10.25
2023-03-07T17:29:29.977Z,9.55
2023-03-07T17:31:57.525Z,10.07
2023-03-07T17:34:25.986Z,10.10
2023-03-07T17:36:53.580Z,9.43
2023-03-07T17:39:21.669Z,9.55
2023-03-07T17:41:49.221Z,9.77
2023-03-07T17:44:18.059Z,9.95
2023-03-07T17:46:45.758Z,10.40
2023-03-07T17:49:13.423Z,9.90
2023-03-07T17:51:40.922Z,10.82
2023-03-07T17:54:08.595Z,10.73
2023-03-07T17:56:36.765Z,10.23
2023-03-07T17:59:05.084Z,10.10
2023-03-07T18:04:00.127Z,12.05
2023-03-07T18:06:27.760Z,10.30
2023-03-07T18:08:55.303Z,10.45
2023-03-07T18:11:22.820Z,10.45
2023-03-07T18:13:50.365Z,9.80
2023-03-07T18:16:17.948Z,9.30
2023-03-07T18:18:58.214Z,9.48
2023-03-07T18:21:29.407Z,9.75
2023-03-07T18:23:57.052Z,10.75
2023-03-07T18:26:24.623Z,10.18
2023-03-07T18:28:56.171Z,10.80
2023-03-07T18:31:30.242Z,11.02
2023-03-07T18:33:57.851Z,10.30
2023-03-07T18:36:25.636Z,12.13
2023-03-07T18:38:53.228Z,8.35
2023-03-07T18:41:21.606Z,11.90
2023-03-07T18:43:49.211Z,10.88
2023-03-07T18:46:17.805Z,11.20
2023-03-07T18:48:45.435Z,10.57
2023-03-07T18:51:13.782Z,10.95
2023-03-07T18:56:09.830Z,9.88
2023-03-07T18:58:37.437Z,11.05
2023-03-07T19:01:11.105Z,11.45
2023-03-07T19:03:38.638Z,12.57
2023-03-07T19:06:06.393Z,10.65
2023-03-07T19:08:34.007Z,10.40
2023-03-07T19:11:04.673Z,8.25
2023-03-07T19:13:32.277Z,11.40
2023-03-07T19:16:03.887Z,11.20
2023-03-07T19:18:31.479Z,11.30
2023-03-07T19:20:58.984Z,11.02
2023-03-07T19:23:26.515Z,8.07
2023-03-07T19:25:54.027Z,10.32
2023-03-07T19:28:21.553Z,11.18
2023-03-07T19:30:49.088Z,11.23
2023-03-07T19:33:16.607Z,10.60
2023-03-07T19:35:44.555Z,10.55
2023-03-07T19:38:12.130Z,11.32
2023-03-07T19:40:39.673Z,12.73
2023-03-07T19:43:07.188Z,11.50
2023-03-07T19:45:34.792Z,9.95
2023-03-07T19:48:03.576Z,11.07
2023-03-07T19:50:31.088Z,11.90
2023-03-07T19:52:59.083Z,10.98
2023-03-07T19:55:26.640Z,10.25
2023-03-07T19:57:54.169Z,7.47
2023-03-07T20:00:21.813Z,10.68
2023-03-07T20:02:49.395Z,7.50
2023-03-07T20:05:16.943Z,9.85
2023-03-07T20:07:44.479Z,9.77
2023-03-07T20:10:12.257Z,9.35
2023-03-07T20:12:39.797Z,10.13
2023-03-07T20:15:08.323Z,9.30
2023-03-07T20:17:36.507Z,10.25
2023-03-07T20:20:04.772Z,9.63
2023-03-07T20:22:32.468Z,9.55
2023-03-07T20:25:00.094Z,10.35
2023-03-07T20:27:27.740Z,10.10
2023-03-07T20:29:55.408Z,10.65
2023-03-07T20:32:22.997Z,10.10
2023-03-07T20:34:53.825Z,10.02
2023-03-07T20:37:21.351Z,9.88
2023-03-07T20:39:48.880Z,7.40
2023-03-07T20:42:16.598Z,9.88
2023-03-07T20:44:44.122Z,10.02
2023-03-07T20:47:11.630Z,10.10
2023-03-07T20:49:39.145Z,9.57
2023-03-07T20:52:06.672Z,9.88
2023-03-07T20:54:34.242Z,9.95
2023-03-07T20:57:01.833Z,10.40
2023-03-07T20:59:29.343Z,10.65
2023-03-07T21:01:56.938Z,9.63
2023-03-07T21:04:24.543Z,9.85
2023-03-07T21:06:52.068Z,9.18
2023-03-07T21:09:19.749Z,8.95
2023-03-07T21:11:48.874Z,7.07
2023-03-07T21:14:16.829Z,9.55
2023-03-07T21:16:44.439Z,8.77
2023-03-07T21:19:12.170Z,9.13
2023-03-07T21:21:39.882Z,9.68
2023-03-07T21:24:07.670Z,9.60
2023-03-07T21:26:36.218Z,9.82
2023-03-07T21:29:03.813Z,8.80
2023-03-07T21:31:32.169Z,8.32
2023-03-07T21:36:27.293Z,8.68
2023-03-07T21:38:54.902Z,7.25
2023-03-07T21:41:24.804Z,9.07
2023-03-07T21:43:52.977Z,9.48
2023-03-07T21:46:20.611Z,9.40
2023-03-07T21:48:48.250Z,9.95
2023-03-07T21:51:15.812Z,9.85
2023-03-07T21:53:43.491Z,7.38
2023-03-07T21:56:11.745Z,9.85
2023-03-07T21:58:39.453Z,10.05
2023-03-07T22:01:13.884Z,10.73
2023-03-07T22:03:41.696Z,9.85
2023-03-07T22:06:09.879Z,9.38
2023-03-07T22:08:37.573Z,10.10
2023-03-07T22:11:05.572Z,7.50
2023-03-07T22:13:34.270Z,9.38
2023-03-07T22:16:03.191Z,10.27
2023-03-07T22:18:30.792Z,10.38
2023-03-07T22:20:58.342Z,8.65
2023-03-07T22:23:26.518Z,9.52
2023-03-07T22:25:54.103Z,9.85
2023-03-07T22:28:22.909Z,8.82
2023-03-07T22:30:51.437Z,8.52
2023-03-07T22:33:19.006Z,9.05
2023-03-07T22:35:56.525Z,9.15
2023-03-07T22:38:24.076Z,8.20
2023-03-07T22:40:51.649Z,8.55
2023-03-07T22:43:19.338Z,7.93
2023-03-07T22:45:50.668Z,8.27
2023-03-07T22:48:18.240Z,8.02
2023-03-07T22:50:45.740Z,8.52
2023-03-07T22:53:13.250Z,9.35
2023-03-07T22:55:44.088Z,9.90
2023-03-07T22:58:11.877Z,9.35
2023-03-07T23:00:43.557Z,10.18
2023-03-07T23:03:11.350Z,10.15
2023-03-07T23:05:38.901Z,10.48
2023-03-07T23:08:06.481Z,10.95
2023-03-07T23:10:34.041Z,9.57
2023-03-07T23:13:01.669Z,7.85
2023-03-07T23:15:29.496Z,10.38
2023-03-07T23:17:57.564Z,9.50
2023-03-07T23:20:30.086Z,10.60
2023-03-07T23:22:57.600Z,9.70
2023-03-07T23:25:25.109Z,9.70
2023-03-07T23:27:52.663Z,9.85
2023-03-07T23:30:20.343Z,9.40
2023-03-07T23:32:47.937Z,10.88
2023-03-07T23:35:15.483Z,10.55
2023-03-07T23:37:43.072Z,10.68
2023-03-07T23:40:12.066Z,10.15
2023-03-07T23:42:40.044Z,9.75
2023-03-07T23:45:07.880Z,10.00
2023-03-07T23:47:35.530Z,9.77
2023-03-07T23:50:03.070Z,10.07
2023-03-07T23:52:30.653Z,9.45
2023-03-07T23:54:58.231Z,10.13
2023-03-07T23:57:25.836Z,8.95
2023-03-07T23:59:53.360Z,10.02
